Sks Spey — LACI7 — position and weather

sailwx.info

Track history (hours):
 
Tides and Currents Weather Stations Pressure Air Temp Water Temp Dewpoint Dewpoint Depression Visibility Wind Speed Wind Dir Waves Ship Positions

Sks Spey

Last reported at 2018-Jan-23 00:13 UTC. Time now 2018-Jan-23 06:02 UTC.
Position N 53°01' E 003°23'.

Length 274 m; draft 15.3 m.

Type: Tanker. MMSI: 258881000.

Date/timePositionNaut miles runAvg speedWind from/ knotsBaromVisibWave heightAir tempDewpointWater temp
2018-Jan-23 00:13N 53°01' E 003°23'311.5
2018-Jan-23 00:00N 52°59' E 003°22'611.3
2018-Jan-22 23:29N 52°53' E 003°18'611.6
2018-Jan-22 23:00N 52°48' E 003°14'611.7
2018-Jan-22 22:29N 52°43' E 003°09'6613.1
2018-Jan-22 17:28N 51°42' E 002°29'1015.1
2018-Jan-22 16:48N 51°35' E 002°18'515.2
2018-Jan-22 16:30N 51°31' E 002°13'715.3
2018-Jan-22 16:01N 51°26' E 002°05'815.5
2018-Jan-22 15:31N 51°20' E 001°58'815.8
2018-Jan-22 15:00N 51°13' E 001°50'816.1
2018-Jan-22 14:31N 51°07' E 001°42'816.5
2018-Jan-22 14:00N 51°00' E 001°34'816.3
2018-Jan-22 13:30N 50°54' E 001°27'815.5
2018-Jan-22 12:58N 50°46' E 001°22'4714.0
2018-Jan-22 09:38N 50°23' E 000°18'214.3
2018-Jan-22 09:30N 50°23' E 000°15'714.0
2018-Jan-22 09:00N 50°21' E 000°04'713.5
2018-Jan-22 08:30N 50°19' W 000°06'713.2
2018-Jan-22 08:00N 50°18' W 000°16'612.8
2018-Jan-22 07:30N 50°16' W 000°26'612.3
2018-Jan-22 07:00N 50°14' W 000°35'8612.2
2018-Jan-21 23:57N 49°52' W 002°44'1914.4
2018-Jan-21 22:38N 49°43' W 003°10'3214.4
2018-Jan-21 20:25N 49°28' W 003°53'1614.7
2018-Jan-21 19:20N 49°20' W 004°15'514.8
2018-Jan-21 19:00N 49°17' W 004°21'5914.1
2018-Jan-21 14:49N 48°48' W 005°39'512.9
2018-Jan-21 14:26N 48°43' W 005°43'17 9.5
2018-Jan-21 12:38N 48°28' W 005°55'2 2.8
2018-Jan-21 11:59N 48°30' W 005°55'  
2018-Jan-18 01:22N 34°35' W 013°59'  
Track history (hours):
 
Tides and Currents Weather Stations Pressure Air Temp Water Temp Dewpoint Dewpoint Depression Visibility Wind Speed Wind Dir Waves Ship Positions

Sks Spey

Last reported at 2018-Jan-23 00:13 UTC. Time now 2018-Jan-23 06:02 UTC.
Position N 53°01' E 003°23'.

Length 274 m; draft 15.3 m.

Type: Tanker. MMSI: 258881000.

Date/timePositionNaut miles runAvg speedWind from/ knotsBaromVisibWave heightAir tempDewpointWater temp
2018-Jan-23 00:13N 53°01' E 003°23'311.5
2018-Jan-23 00:00N 52°59' E 003°22'611.3
2018-Jan-22 23:29N 52°53' E 003°18'611.6
2018-Jan-22 23:00N 52°48' E 003°14'611.7
2018-Jan-22 22:29N 52°43' E 003°09'6613.1
2018-Jan-22 17:28N 51°42' E 002°29'1015.1
2018-Jan-22 16:48N 51°35' E 002°18'515.2
2018-Jan-22 16:30N 51°31' E 002°13'715.3
2018-Jan-22 16:01N 51°26' E 002°05'815.5
2018-Jan-22 15:31N 51°20' E 001°58'815.8
2018-Jan-22 15:00N 51°13' E 001°50'816.1
2018-Jan-22 14:31N 51°07' E 001°42'816.5
2018-Jan-22 14:00N 51°00' E 001°34'816.3
2018-Jan-22 13:30N 50°54' E 001°27'815.5
2018-Jan-22 12:58N 50°46' E 001°22'4714.0
2018-Jan-22 09:38N 50°23' E 000°18'214.3
2018-Jan-22 09:30N 50°23' E 000°15'714.0
2018-Jan-22 09:00N 50°21' E 000°04'713.5
2018-Jan-22 08:30N 50°19' W 000°06'713.2
2018-Jan-22 08:00N 50°18' W 000°16'612.8
2018-Jan-22 07:30N 50°16' W 000°26'612.3
2018-Jan-22 07:00N 50°14' W 000°35'8612.2
2018-Jan-21 23:57N 49°52' W 002°44'1914.4
2018-Jan-21 22:38N 49°43' W 003°10'3214.4
2018-Jan-21 20:25N 49°28' W 003°53'1614.7
2018-Jan-21 19:20N 49°20' W 004°15'514.8
2018-Jan-21 19:00N 49°17' W 004°21'5914.1
2018-Jan-21 14:49N 48°48' W 005°39'512.9
2018-Jan-21 14:26N 48°43' W 005°43'17 9.5
2018-Jan-21 12:38N 48°28' W 005°55'2 2.8
2018-Jan-21 11:59N 48°30' W 005°55'  
2018-Jan-18 01:22N 34°35' W 013°59'  

Dump ship's entire track history